Time;durP1;ratioP1;P1;durP2;ratioP2;P2;SDS_P1;SDS_P2;PMS_P1;PMS_P2;Temp;Humidity;BMP_temperature;BMP_pressure;BME280_temperature;BME280_humidity;BME280_pressure;Samples;Min_cycle;Max_cycle;Signal;HPM_P1;HPM_P2
2021/05/16 00:02:29;;;;;;;1.30;1.20;;;12.60;90.20;;;;;;10429663;28;20226;-82
2021/05/16 00:07:32;;;;;;;2.20;1.10;;;12.70;90.50;;;;;;10428852;28;20222;-82
2021/05/16 00:12:35;;;;;;;2.00;1.20;;;12.70;89.70;;;;;;10428176;28;20345;-83
2021/05/16 00:17:36;;;;;;;2.10;1.17;;;12.60;89.80;;;;;;10424212;28;20216;-83
2021/05/16 00:22:39;;;;;;;4.27;1.20;;;12.50;90.20;;;;;;10418934;28;20214;-82
2021/05/16 00:27:41;;;;;;;2.40;1.63;;;12.50;90.60;;;;;;10424663;28;20313;-81
2021/05/16 00:32:43;;;;;;;1.40;1.30;;;12.60;90.30;;;;;;10411630;28;20210;-81
2021/05/16 00:37:46;;;;;;;1.13;1.10;;;12.60;90.40;;;;;;10412771;28;20281;-81
2021/05/16 00:42:47;;;;;;;1.07;0.80;;;12.70;90.00;;;;;;10418325;28;20234;-82
2021/05/16 00:47:50;;;;;;;1.67;1.23;;;12.70;90.10;;;;;;10427243;28;20229;-82
2021/05/16 00:52:53;;;;;;;5.90;1.80;;;12.70;90.70;;;;;;10429140;28;20226;-84
2021/05/16 00:57:54;;;;;;;1.20;1.10;;;12.70;90.50;;;;;;10429856;28;20216;-83
2021/05/16 01:02:57;;;;;;;1.40;1.10;;;12.80;90.40;;;;;;10422376;28;20272;-82
2021/05/16 01:08:05;;;;;;;1.60;1.50;;;12.80;90.90;;;;;;10411967;28;20229;-82
2021/05/16 01:13:09;;;;;;;1.80;1.50;;;12.80;91.10;;;;;;10428561;28;20245;-82
2021/05/16 01:18:11;;;;;;;1.60;1.50;;;12.80;91.30;;;;;;10429973;28;20198;-83
2021/05/16 01:23:18;;;;;;;2.03;1.83;;;12.90;90.30;;;;;;10432250;28;20220;-82
2021/05/16 01:28:26;;;;;;;2.80;1.20;;;12.80;90.70;;;;;;10415024;28;20234;-81
2021/05/16 01:33:29;;;;;;;1.77;1.30;;;12.80;90.80;;;;;;10425406;28;20217;-81
2021/05/16 01:38:32;;;;;;;2.67;1.50;;;12.80;90.60;;;;;;10427134;28;20670;-82
2021/05/16 01:43:37;;;;;;;2.67;1.70;;;12.90;90.80;;;;;;10426641;28;20275;-81
2021/05/16 01:48:39;;;;;;;2.60;1.40;;;12.90;90.50;;;;;;10425902;28;20217;-83
2021/05/16 01:53:42;;;;;;;1.93;1.37;;;12.90;91.00;;;;;;10427694;28;20253;-82
2021/05/16 01:58:44;;;;;;;1.93;1.50;;;12.80;92.20;;;;;;10424134;28;20205;-81
2021/05/16 02:03:47;;;;;;;3.60;1.60;;;12.80;92.50;;;;;;10422828;28;20225;-83
2021/05/16 02:08:51;;;;;;;1.50;1.30;;;12.80;92.50;;;;;;10438890;28;20416;-81
2021/05/16 02:14:00;;;;;;;1.80;1.70;;;12.80;93.20;;;;;;10406349;28;20226;-84
2021/05/16 02:19:02;;;;;;;1.67;1.57;;;12.80;92.60;;;;;;10421094;28;20206;-81
2021/05/16 02:24:09;;;;;;;4.20;1.83;;;12.80;92.60;;;;;;10424421;28;20229;-81
2021/05/16 02:29:29;;;;;;;2.90;2.27;;;12.80;92.30;;;;;;10420457;28;20228;-82
2021/05/16 02:34:31;;;;;;;1.40;1.20;;;12.90;92.70;;;;;;10423944;28;20225;-80
2021/05/16 02:39:35;;;;;;;3.63;1.90;;;12.90;93.10;;;;;;10437209;28;20748;-83
2021/05/16 02:44:37;;;;;;;2.10;1.33;;;12.90;93.00;;;;;;10432088;28;20258;-82
2021/05/16 02:49:39;;;;;;;1.83;1.40;;;12.80;93.70;;;;;;10421230;28;20233;-83
2021/05/16 02:54:42;;;;;;;1.83;1.47;;;12.80;94.10;;;;;;10424483;28;20253;-82
2021/05/16 02:59:44;;;;;;;3.40;1.53;;;12.70;94.80;;;;;;10430500;28;20271;-82
2021/05/16 03:04:47;;;;;;;1.70;1.60;;;12.60;95.00;;;;;;10432385;28;20662;-83
2021/05/16 03:09:51;;;;;;;2.47;1.60;;;12.60;95.90;;;;;;10412023;28;20289;-84
2021/05/16 03:14:53;;;;;;;1.63;1.50;;;12.50;96.60;;;;;;10430039;28;20202;-84
2021/05/16 03:19:55;;;;;;;2.53;1.77;;;12.60;96.70;;;;;;10415066;28;20256;-84
2021/05/16 03:24:59;;;;;;;1.63;1.53;;;12.60;97.00;;;;;;10424412;28;20198;-82
2021/05/16 03:30:01;;;;;;;1.67;1.50;;;12.70;96.70;;;;;;10426713;28;20210;-83
2021/05/16 03:35:04;;;;;;;1.53;1.43;;;12.70;96.50;;;;;;10408056;28;20235;-83
2021/05/16 03:40:08;;;;;;;2.83;1.50;;;12.70;96.40;;;;;;10426286;28;20214;-83
2021/05/16 03:45:11;;;;;;;2.60;1.70;;;12.70;96.50;;;;;;10409700;28;20234;-84
2021/05/16 03:50:13;;;;;;;1.60;1.50;;;12.70;96.50;;;;;;10426341;28;20245;-83
2021/05/16 03:55:19;;;;;;;3.83;1.37;;;12.80;96.10;;;;;;10431739;28;20198;-82
2021/05/16 04:00:21;;;;;;;3.00;1.73;;;12.70;95.90;;;;;;10441502;28;20217;-83
2021/05/16 04:05:25;;;;;;;5.23;1.67;;;12.70;96.20;;;;;;10432548;28;20201;-82
2021/05/16 04:10:27;;;;;;;4.63;2.03;;;12.60;96.60;;;;;;10433345;28;20595;-83
2021/05/16 04:15:29;;;;;;;1.67;1.57;;;12.60;97.00;;;;;;10431405;28;20279;-82
2021/05/16 04:20:31;;;;;;;1.47;1.30;;;12.50;97.60;;;;;;10424800;28;20222;-81
2021/05/16 04:25:33;;;;;;;2.23;1.80;;;12.30;98.70;;;;;;10428526;28;20248;-82
2021/05/16 04:30:35;;;;;;;3.00;1.50;;;12.10;99.20;;;;;;10424685;28;20340;-82
2021/05/16 04:35:37;;;;;;;2.20;2.00;;;12.00;99.60;;;;;;10426555;28;20233;-82
2021/05/16 04:40:39;;;;;;;1.60;1.50;;;12.00;99.90;;;;;;10428804;28;20691;-81
2021/05/16 04:45:41;;;;;;;1.40;1.30;;;12.00;99.90;;;;;;10428618;28;20221;-80
2021/05/16 04:50:43;;;;;;;1.80;1.30;;;12.00;99.90;;;;;;10426703;28;20291;-80
2021/05/16 04:55:45;;;;;;;2.97;1.70;;;12.00;99.90;;;;;;10427124;28;20549;-81
2021/05/16 05:00:47;;;;;;;1.77;1.57;;;12.10;99.90;;;;;;10435285;28;20241;-84
2021/05/16 05:05:52;;;;;;;3.97;1.73;;;12.20;99.90;;;;;;10433903;28;20300;-82
2021/05/16 05:10:54;;;;;;;1.50;1.40;;;12.30;99.90;;;;;;10424066;28;20600;-82
2021/05/16 05:15:56;;;;;;;1.30;1.20;;;12.50;99.90;;;;;;10427676;28;20201;-81
2021/05/16 05:20:58;;;;;;;1.30;1.20;;;12.60;99.90;;;;;;10426876;28;20273;-82
2021/05/16 05:26:00;;;;;;;2.30;1.10;;;12.80;99.10;;;;;;10427222;28;20218;-80
2021/05/16 05:31:03;;;;;;;1.13;1.03;;;12.90;99.10;;;;;;10427375;28;20228;-83
2021/05/16 05:36:05;;;;;;;2.47;1.40;;;13.00;98.70;;;;;;10428991;28;20208;-82
2021/05/16 05:41:07;;;;;;;1.50;1.20;;;13.10;98.80;;;;;;10428448;28;20228;-81
2021/05/16 05:46:09;;;;;;;1.40;1.30;;;13.10;99.70;;;;;;10424256;28;20214;-82
2021/05/16 05:51:10;;;;;;;1.30;1.10;;;12.90;99.90;;;;;;10426790;28;20340;-82
2021/05/16 05:56:13;;;;;;;2.60;1.27;;;12.90;99.90;;;;;;10423838;28;20225;-81
2021/05/16 06:01:15;;;;;;;4.27;1.40;;;12.80;99.90;;;;;;10416550;28;20229;-82
2021/05/16 06:06:16;;;;;;;1.30;1.20;;;12.80;99.90;;;;;;10415684;28;20308;-83
2021/05/16 06:11:19;;;;;;;1.23;1.13;;;12.80;99.90;;;;;;10416803;28;20267;-83
2021/05/16 06:16:20;;;;;;;1.33;1.20;;;12.90;99.90;;;;;;10415809;28;20194;-82
2021/05/16 06:21:22;;;;;;;1.33;1.23;;;13.00;99.90;;;;;;10415660;28;20232;-82
2021/05/16 06:26:24;;;;;;;1.10;1.00;;;13.30;99.90;;;;;;10414857;28;20296;-82
2021/05/16 06:31:26;;;;;;;1.40;1.30;;;13.30;99.90;;;;;;10416748;28;20602;-82
2021/05/16 06:36:28;;;;;;;1.10;1.00;;;13.30;99.90;;;;;;10429692;28;20287;-85
2021/05/16 06:41:31;;;;;;;1.37;1.27;;;13.40;99.90;;;;;;10420684;28;20214;-83
2021/05/16 06:46:33;;;;;;;1.07;1.07;;;13.50;99.90;;;;;;10421070;28;20229;-83
2021/05/16 06:51:35;;;;;;;1.73;1.23;;;13.80;99.90;;;;;;10418274;28;20963;-84
2021/05/16 06:56:38;;;;;;;2.00;1.50;;;14.00;97.70;;;;;;10419406;28;20618;-82
2021/05/16 07:01:40;;;;;;;2.33;1.20;;;14.20;98.00;;;;;;10404550;28;20267;-83
2021/05/16 07:06:41;;;;;;;1.77;1.30;;;14.50;97.50;;;;;;10405482;28;20233;-84
2021/05/16 07:11:44;;;;;;;1.20;1.10;;;14.80;97.80;;;;;;10424029;28;20217;-83
2021/05/16 07:16:45;;;;;;;1.30;1.20;;;15.20;97.30;;;;;;10431881;28;20201;-81
2021/05/16 07:21:47;;;;;;;4.00;1.30;;;15.60;96.50;;;;;;10420498;28;20218;-84
2021/05/16 07:26:50;;;;;;;2.07;1.50;;;15.90;95.50;;;;;;10406177;28;20267;-84
2021/05/16 07:31:52;;;;;;;1.23;1.13;;;16.00;95.00;;;;;;10425835;28;20333;-84
2021/05/16 07:36:53;;;;;;;2.13;1.93;;;15.80;94.70;;;;;;10424873;28;20206;-84
2021/05/16 07:41:56;;;;;;;1.50;1.30;;;15.70;95.00;;;;;;10423107;28;20221;-84
2021/05/16 07:46:57;;;;;;;1.40;1.30;;;15.70;95.00;;;;;;10421928;28;20233;-85
2021/05/16 07:51:59;;;;;;;2.40;1.40;;;15.80;94.70;;;;;;10421862;28;20293;-84
2021/05/16 07:57:01;;;;;;;2.37;1.30;;;16.10;92.80;;;;;;10405558;28;20217;-84
2021/05/16 08:02:04;;;;;;;1.57;1.20;;;16.30;93.10;;;;;;10424742;28;20218;-84
2021/05/16 08:07:06;;;;;;;2.40;1.40;;;16.50;91.90;;;;;;10422529;28;20226;-85
2021/05/16 08:12:09;;;;;;;3.80;1.40;;;16.50;90.70;;;;;;10422695;28;20232;-84
2021/05/16 08:17:11;;;;;;;2.97;1.60;;;16.10;93.30;;;;;;10421353;28;20563;-83
2021/05/16 08:22:13;;;;;;;1.63;1.53;;;15.60;94.50;;;;;;10422816;28;20249;-84
2021/05/16 08:27:16;;;;;;;1.50;1.40;;;15.00;96.60;;;;;;10425043;28;20512;-83
2021/05/16 08:32:18;;;;;;;3.03;1.40;;;14.70;98.00;;;;;;10422187;28;20218;-82
2021/05/16 08:37:19;;;;;;;4.50;1.50;;;14.70;98.80;;;;;;10424797;28;20202;-84
2021/05/16 08:42:22;;;;;;;1.47;1.37;;;15.20;99.70;;;;;;10424390;28;20252;-83
2021/05/16 08:47:24;;;;;;;2.70;1.60;;;16.00;99.90;;;;;;10419465;28;20218;-83
2021/05/16 08:52:26;;;;;;;1.90;1.47;;;16.80;96.20;;;;;;10430265;28;20282;-84
2021/05/16 08:57:28;;;;;;;1.70;1.60;;;17.30;95.90;;;;;;10440492;28;20666;-83
2021/05/16 09:02:30;;;;;;;1.83;1.60;;;17.70;95.30;;;;;;10427535;28;20272;-83
2021/05/16 09:07:32;;;;;;;1.70;1.40;;;18.30;95.50;;;;;;10425941;28;20277;-84
2021/05/16 09:12:39;;;;;;;2.80;1.50;;;18.50;93.40;;;;;;10428057;28;20732;-85
2021/05/16 09:17:41;;;;;;;3.80;1.67;;;19.00;92.30;;;;;;10413194;28;20683;-82
2021/05/16 09:22:43;;;;;;;2.37;1.70;;;19.60;91.50;;;;;;10426125;28;20731;-83
2021/05/16 09:27:48;;;;;;;1.73;1.20;;;20.10;87.10;;;;;;10426835;28;20210;-83
2021/05/16 09:32:52;;;;;;;1.53;1.40;;;20.30;82.20;;;;;;10422751;28;20228;-83
2021/05/16 09:37:58;;;;;;;2.40;1.63;;;20.70;83.70;;;;;;10412962;28;20205;-84
2021/05/16 09:43:11;;;;;;;1.93;1.33;;;21.40;78.00;;;;;;10407849;28;20219;-84
2021/05/16 09:48:39;;;;;;;3.37;1.80;;;21.80;74.00;;;;;;10403661;28;20360;-83
2021/05/16 09:53:58;;;;;;;2.60;1.40;;;22.00;72.60;;;;;;10395050;28;20229;-83
2021/05/16 09:59:02;;;;;;;3.63;1.83;;;22.80;68.00;;;;;;10413687;28;20198;-84
2021/05/16 10:04:05;;;;;;;1.90;1.50;;;23.90;63.00;;;;;;10421403;28;20608;-85
2021/05/16 10:09:07;;;;;;;2.97;1.63;;;24.40;62.50;;;;;;10412170;28;20241;-83
2021/05/16 10:14:15;;;;;;;4.10;1.53;;;24.40;59.60;;;;;;10411172;28;20223;-83
2021/05/16 10:19:20;;;;;;;1.90;1.13;;;24.60;58.20;;;;;;10422030;28;20193;-84
2021/05/16 10:24:30;;;;;;;3.67;1.33;;;23.90;59.70;;;;;;10421037;28;20243;-84
2021/05/16 10:29:46;;;;;;;2.67;1.73;;;23.00;58.20;;;;;;10419172;28;20244;-82
2021/05/16 10:34:59;;;;;;;1.43;1.30;;;22.40;58.50;;;;;;10433264;28;20208;-82
2021/05/16 10:40:01;;;;;;;2.33;1.57;;;21.90;59.40;;;;;;10415503;28;20190;-83
2021/05/16 10:45:16;;;;;;;2.40;1.53;;;21.60;56.50;;;;;;10416838;28;20209;-85
2021/05/16 10:50:47;;;;;;;2.03;1.70;;;21.20;59.10;;;;;;10411056;28;20230;-83
2021/05/16 10:55:50;;;;;;;2.03;1.90;;;20.80;59.40;;;;;;10423941;28;20232;-83
2021/05/16 11:01:00;;;;;;;2.33;1.40;;;20.30;59.20;;;;;;10424867;28;20281;-83
2021/05/16 11:06:02;;;;;;;4.90;1.60;;;19.90;59.20;;;;;;10415040;28;20610;-83
2021/05/16 11:11:27;;;;;;;2.60;1.70;;;19.60;61.40;;;;;;10419446;28;20218;-82
2021/05/16 11:16:29;;;;;;;1.40;1.30;;;19.50;62.60;;;;;;10414176;28;20682;-81
2021/05/16 11:21:31;;;;;;;4.87;1.50;;;19.40;61.10;;;;;;10420579;28;20263;-81
2021/05/16 11:26:33;;;;;;;1.60;1.20;;;19.20;64.50;;;;;;10420364;28;20596;-83
2021/05/16 11:31:35;;;;;;;2.60;1.20;;;19.20;60.70;;;;;;10420929;28;20722;-82
2021/05/16 11:36:39;;;;;;;1.90;1.40;;;19.10;61.70;;;;;;10422916;28;20190;-81
2021/05/16 11:41:43;;;;;;;2.07;1.30;;;18.90;58.80;;;;;;10423971;28;20213;-83
2021/05/16 11:46:46;;;;;;;1.30;1.20;;;18.90;59.10;;;;;;10423159;28;20266;-83
2021/05/16 11:51:48;;;;;;;1.47;1.00;;;18.80;60.20;;;;;;10424238;28;20225;-81
2021/05/16 11:56:50;;;;;;;1.20;1.00;;;18.90;58.90;;;;;;10424436;28;20199;-82
2021/05/16 12:01:54;;;;;;;1.47;1.37;;;19.00;60.50;;;;;;10425456;28;20626;-82
2021/05/16 12:06:57;;;;;;;1.93;1.30;;;19.10;58.70;;;;;;10424925;28;20639;-82
2021/05/16 12:12:00;;;;;;;1.10;1.00;;;19.10;59.80;;;;;;10425983;28;20823;-84
2021/05/16 12:17:05;;;;;;;2.10;1.40;;;19.00;62.90;;;;;;10391278;28;20563;-83
2021/05/16 12:22:08;;;;;;;3.47;1.83;;;19.10;60.20;;;;;;10393147;28;20612;-82
2021/05/16 12:27:12;;;;;;;2.50;1.87;;;19.20;61.10;;;;;;10426221;28;20226;-84
2021/05/16 12:32:25;;;;;;;2.20;1.10;;;19.40;67.50;;;;;;10429358;28;20230;-83
2021/05/16 12:37:35;;;;;;;1.67;1.20;;;19.40;64.80;;;;;;10426725;28;20244;-82
2021/05/16 12:42:40;;;;;;;2.50;1.93;;;19.40;59.60;;;;;;10406939;28;20589;-81
2021/05/16 12:47:55;;;;;;;1.93;1.30;;;19.50;63.10;;;;;;10405534;28;20297;-83
2021/05/16 12:53:23;;;;;;;2.17;1.33;;;19.70;59.70;;;;;;10405212;28;20320;-81
2021/05/16 12:58:34;;;;;;;1.57;1.30;;;19.90;62.70;;;;;;10405496;28;20194;-83
2021/05/16 13:03:37;;;;;;;1.63;1.20;;;20.10;59.60;;;;;;10389303;28;20780;-81
2021/05/16 13:08:41;;;;;;;4.23;1.80;;;20.00;60.40;;;;;;10429209;28;20226;-84
2021/05/16 13:13:44;;;;;;;1.60;1.13;;;20.00;61.80;;;;;;10429133;28;20226;-82
2021/05/16 13:18:50;;;;;;;1.40;1.30;;;19.90;60.00;;;;;;10420144;28;20260;-83
2021/05/16 13:24:07;;;;;;;2.80;1.10;;;19.90;62.10;;;;;;10422898;28;20218;-83
2021/05/16 13:29:09;;;;;;;1.93;1.20;;;19.70;60.00;;;;;;10408861;28;20229;-81
2021/05/16 13:34:23;;;;;;;1.37;1.20;;;19.60;57.60;;;;;;10404806;28;20701;-82
2021/05/16 13:39:28;;;;;;;1.70;1.30;;;19.50;61.10;;;;;;10408169;28;20211;-83
2021/05/16 13:44:31;;;;;;;3.13;1.27;;;19.30;59.80;;;;;;10410224;28;20218;-83
2021/05/16 13:49:35;;;;;;;1.27;1.17;;;19.20;58.90;;;;;;10406638;28;20626;-81
2021/05/16 13:54:37;;;;;;;1.63;1.30;;;19.20;59.40;;;;;;10422108;28;20231;-82
2021/05/16 13:59:38;;;;;;;4.30;1.20;;;19.20;56.90;;;;;;10408036;28;20194;-83
2021/05/16 14:04:42;;;;;;;2.70;1.47;;;19.10;56.20;;;;;;10408442;28;20228;-84
2021/05/16 14:09:47;;;;;;;2.70;1.60;;;19.00;57.60;;;;;;10408615;28;20245;-83
2021/05/16 14:14:48;;;;;;;1.10;1.00;;;18.90;59.20;;;;;;10424393;28;20210;-81
2021/05/16 14:19:51;;;;;;;2.20;1.30;;;18.80;61.30;;;;;;10422452;28;20186;-82
2021/05/16 14:24:53;;;;;;;1.90;1.30;;;18.80;60.20;;;;;;10418756;28;20198;-83
2021/05/16 14:29:55;;;;;;;3.47;1.73;;;18.60;60.60;;;;;;10422078;28;20551;-84
2021/05/16 14:34:58;;;;;;;1.57;1.10;;;18.60;62.50;;;;;;10426122;28;20206;-83
2021/05/16 14:39:59;;;;;;;1.50;1.33;;;18.50;62.00;;;;;;10419170;28;20217;-85
2021/05/16 14:45:01;;;;;;;1.33;1.10;;;18.50;63.30;;;;;;10430336;28;20202;-85
2021/05/16 14:50:05;;;;;;;1.93;1.70;;;18.50;63.40;;;;;;10416569;28;20217;-83
2021/05/16 14:55:07;;;;;;;2.20;1.10;;;18.60;64.40;;;;;;10443118;28;20190;-84
2021/05/16 15:00:11;;;;;;;2.67;1.90;;;18.70;67.00;;;;;;10424317;28;20677;-83
2021/05/16 15:05:14;;;;;;;3.03;1.27;;;18.70;68.80;;;;;;10430523;28;20241;-85
2021/05/16 15:10:16;;;;;;;2.57;1.37;;;18.70;68.30;;;;;;10416338;28;20218;-83
2021/05/16 15:15:18;;;;;;;2.97;1.10;;;18.60;67.70;;;;;;10436296;28;20252;-84
2021/05/16 15:20:22;;;;;;;1.40;1.30;;;18.40;70.80;;;;;;10437565;28;20565;-83
2021/05/16 15:25:24;;;;;;;3.70;1.30;;;18.30;71.40;;;;;;10428409;28;20220;-84
2021/05/16 15:30:26;;;;;;;1.57;1.20;;;18.20;70.50;;;;;;10425127;28;20222;-85
2021/05/16 15:35:28;;;;;;;1.33;1.00;;;18.20;70.30;;;;;;10440685;28;20289;-86
2021/05/16 15:40:30;;;;;;;1.10;1.00;;;18.20;72.40;;;;;;10418419;28;20217;-85
2021/05/16 15:45:35;;;;;;;1.33;1.07;;;18.30;73.10;;;;;;10437364;28;20206;-85
2021/05/16 15:50:38;;;;;;;1.33;1.20;;;18.50;70.90;;;;;;10454781;28;20238;-83
2021/05/16 15:55:40;;;;;;;0.93;0.93;;;18.50;70.80;;;;;;10432233;28;20216;-82
2021/05/16 16:00:42;;;;;;;1.67;1.50;;;18.40;67.60;;;;;;10391981;28;20593;-82
2021/05/16 16:05:45;;;;;;;2.20;1.40;;;18.20;68.80;;;;;;10420509;28;20208;-83
2021/05/16 16:10:47;;;;;;;1.20;1.10;;;18.10;69.30;;;;;;10433005;28;20225;-82
2021/05/16 16:15:48;;;;;;;1.33;1.00;;;18.00;68.80;;;;;;10419747;28;20581;-82
2021/05/16 16:20:51;;;;;;;1.33;1.23;;;17.90;68.90;;;;;;10399554;28;20226;-82
2021/05/16 16:25:52;;;;;;;1.63;1.17;;;17.80;68.50;;;;;;10410208;28;20571;-82
2021/05/16 16:30:58;;;;;;;2.20;1.10;;;17.70;74.40;;;;;;10406790;28;20316;-82
2021/05/16 16:36:01;;;;;;;1.57;0.90;;;17.60;70.10;;;;;;10423253;28;20206;-83
2021/05/16 16:41:03;;;;;;;1.10;1.00;;;17.50;70.40;;;;;;10414584;28;20222;-83
2021/05/16 16:46:04;;;;;;;1.40;1.30;;;17.50;69.70;;;;;;10404476;28;20205;-83
2021/05/16 16:51:07;;;;;;;1.73;0.90;;;17.40;69.80;;;;;;10413332;28;20217;-83
2021/05/16 16:56:09;;;;;;;1.00;1.00;;;17.40;69.40;;;;;;10414518;28;20198;-82
2021/05/16 17:01:10;;;;;;;1.90;1.70;;;17.30;70.10;;;;;;10440243;28;20226;-83
2021/05/16 17:06:13;;;;;;;1.00;1.00;;;17.30;69.80;;;;;;10426079;28;20312;-82
2021/05/16 17:11:15;;;;;;;1.00;1.00;;;17.30;69.10;;;;;;10438709;28;20694;-82
2021/05/16 17:16:20;;;;;;;1.03;1.03;;;17.10;69.90;;;;;;10422887;28;20198;-82
2021/05/16 17:21:26;;;;;;;0.90;0.90;;;17.00;70.00;;;;;;10403493;28;20661;-81
2021/05/16 17:26:31;;;;;;;0.83;0.83;;;16.90;70.40;;;;;;10409477;28;20216;-82
2021/05/16 17:31:34;;;;;;;2.03;1.10;;;16.80;70.40;;;;;;10401067;28;20275;-84
2021/05/16 17:36:38;;;;;;;1.00;1.00;;;16.70;72.10;;;;;;10412541;28;20205;-83
2021/05/16 17:41:40;;;;;;;0.80;0.80;;;16.70;71.60;;;;;;10408044;28;20225;-83
2021/05/16 17:46:51;;;;;;;0.97;0.97;;;16.80;70.10;;;;;;10410570;28;20591;-84
2021/05/16 17:51:59;;;;;;;1.27;1.17;;;16.70;70.70;;;;;;10403387;28;20234;-83
2021/05/16 17:57:03;;;;;;;1.03;0.90;;;16.60;70.30;;;;;;10401858;28;20213;-84
2021/05/16 18:02:05;;;;;;;0.90;0.90;;;16.60;70.00;;;;;;10393494;28;20223;-84
2021/05/16 18:07:08;;;;;;;1.30;1.20;;;16.50;69.80;;;;;;10419105;28;20221;-82
2021/05/16 18:12:10;;;;;;;1.10;1.00;;;16.40;71.10;;;;;;10416656;28;20242;-84
2021/05/16 18:17:13;;;;;;;1.20;1.10;;;16.40;70.90;;;;;;10403654;28;20226;-84
2021/05/16 18:22:16;;;;;;;1.40;1.30;;;16.40;71.70;;;;;;10396944;28;20700;-83
2021/05/16 18:27:20;;;;;;;0.80;0.80;;;16.40;71.60;;;;;;10422947;28;20216;-84
2021/05/16 18:32:23;;;;;;;1.07;0.93;;;16.30;72.10;;;;;;10422297;28;20717;-83
2021/05/16 18:37:26;;;;;;;1.30;1.20;;;16.30;71.90;;;;;;10390222;28;20282;-82
2021/05/16 18:42:28;;;;;;;0.93;0.93;;;16.20;73.40;;;;;;10395980;28;20287;-83
2021/05/16 18:47:30;;;;;;;1.27;0.90;;;16.10;74.70;;;;;;10399945;28;20210;-83
2021/05/16 18:52:32;;;;;;;2.50;1.60;;;16.10;75.10;;;;;;10413025;28;20226;-82
2021/05/16 18:57:35;;;;;;;1.43;1.30;;;16.10;74.60;;;;;;10456570;28;20209;-82
2021/05/16 19:02:37;;;;;;;1.70;1.60;;;16.10;75.30;;;;;;10402915;28;20241;-84
2021/05/16 19:07:41;;;;;;;1.50;1.40;;;16.00;75.60;;;;;;10427474;28;20283;-82
2021/05/16 19:12:44;;;;;;;0.90;0.90;;;16.00;76.30;;;;;;10410827;28;20272;-81
2021/05/16 19:17:46;;;;;;;1.20;1.10;;;16.00;76.00;;;;;;10434165;28;20202;-81
2021/05/16 19:22:51;;;;;;;0.80;0.80;;;15.90;77.40;;;;;;10404570;28;20225;-81
2021/05/16 19:27:53;;;;;;;1.20;1.10;;;15.90;76.70;;;;;;10436182;28;20213;-86
2021/05/16 19:32:54;;;;;;;1.63;1.33;;;15.80;78.20;;;;;;10434181;28;20233;-82
2021/05/16 19:37:57;;;;;;;1.60;1.50;;;15.80;78.50;;;;;;10442767;28;20205;-85
2021/05/16 19:43:00;;;;;;;0.90;0.90;;;15.80;79.10;;;;;;10436713;28;20306;-83
2021/05/16 19:48:02;;;;;;;1.37;1.27;;;15.80;78.90;;;;;;10423769;28;20244;-83
2021/05/16 19:53:04;;;;;;;0.90;0.90;;;15.80;78.60;;;;;;10396892;28;20230;-82
2021/05/16 19:58:07;;;;;;;0.80;0.80;;;15.70;80.10;;;;;;10404879;28;20206;-83
2021/05/16 20:03:09;;;;;;;1.20;1.00;;;15.60;84.00;;;;;;10417783;28;20709;-83
2021/05/16 20:08:11;;;;;;;1.13;1.13;;;15.40;87.60;;;;;;10401163;28;20218;-82
2021/05/16 20:13:13;;;;;;;1.00;0.90;;;15.30;88.50;;;;;;10420286;28;20217;-82
2021/05/16 20:18:15;;;;;;;1.13;1.10;;;15.20;89.20;;;;;;10403025;28;20575;-81
2021/05/16 20:23:18;;;;;;;1.30;1.20;;;15.10;91.20;;;;;;10413094;28;20229;-82
2021/05/16 20:28:20;;;;;;;1.30;1.20;;;15.00;91.50;;;;;;10433111;28;20300;-83
2021/05/16 20:33:25;;;;;;;1.40;1.30;;;14.90;91.90;;;;;;10435817;28;20218;-82
2021/05/16 20:38:29;;;;;;;1.10;1.03;;;14.80;92.70;;;;;;10420659;28;20612;-83
2021/05/16 20:43:30;;;;;;;1.67;0.90;;;14.60;94.50;;;;;;10428921;28;20222;-82
2021/05/16 20:48:34;;;;;;;1.17;1.17;;;14.40;95.20;;;;;;10423390;28;20264;-82
2021/05/16 20:53:37;;;;;;;2.27;1.40;;;14.30;95.50;;;;;;10419057;28;20233;-83
2021/05/16 20:58:43;;;;;;;1.93;1.50;;;14.30;96.00;;;;;;10417750;28;20225;-83
2021/05/16 21:03:46;;;;;;;1.13;1.13;;;14.20;96.30;;;;;;10421761;28;20236;-83
2021/05/16 21:08:48;;;;;;;2.23;1.50;;;14.20;95.90;;;;;;10436943;28;20237;-83
2021/05/16 21:13:50;;;;;;;1.40;1.30;;;14.20;96.40;;;;;;10441516;28;20633;-82
2021/05/16 21:18:55;;;;;;;1.00;0.90;;;14.30;96.60;;;;;;10410921;28;20224;-82
2021/05/16 21:23:58;;;;;;;1.20;1.10;;;14.30;96.20;;;;;;10416064;28;20591;-82
2021/05/16 21:28:59;;;;;;;0.80;0.80;;;14.30;96.00;;;;;;10415680;28;20237;-83
2021/05/16 21:34:01;;;;;;;0.90;0.90;;;14.30;95.90;;;;;;10415716;28;20325;-82
2021/05/16 21:39:08;;;;;;;0.80;0.80;;;14.30;95.60;;;;;;10422004;28;20194;-84
2021/05/16 21:44:10;;;;;;;0.90;0.90;;;14.30;95.60;;;;;;10440855;28;20222;-84
2021/05/16 21:49:12;;;;;;;1.10;1.00;;;14.30;95.60;;;;;;10417003;28;20264;-83
2021/05/16 21:54:18;;;;;;;1.23;1.20;;;14.30;95.30;;;;;;10483446;22;20348;-76
2021/05/16 21:59:20;;;;;;;1.00;1.00;;;14.30;95.30;;;;;;10492770;28;20287;-76
2021/05/16 22:04:22;;;;;;;1.33;1.07;;;14.20;95.50;;;;;;10466112;28;20217;-76
2021/05/16 22:09:24;;;;;;;1.07;1.07;;;14.20;95.80;;;;;;10475452;28;20306;-76
2021/05/16 22:14:26;;;;;;;0.90;0.90;;;14.10;95.70;;;;;;10455897;28;20221;-76
2021/05/16 22:19:27;;;;;;;1.20;1.10;;;14.10;96.30;;;;;;10428865;28;20656;-76
2021/05/16 22:24:30;;;;;;;1.33;1.23;;;14.00;95.60;;;;;;10431643;28;20271;-76
2021/05/16 22:29:31;;;;;;;1.43;1.10;;;14.00;95.30;;;;;;10439810;28;20221;-76
2021/05/16 22:34:33;;;;;;;0.80;0.80;;;14.00;95.90;;;;;;10458736;28;20252;-76
2021/05/16 22:39:35;;;;;;;1.50;1.40;;;14.10;95.80;;;;;;10432146;28;20289;-76
2021/05/16 22:44:37;;;;;;;1.00;1.00;;;14.00;95.70;;;;;;10431378;28;20275;-76
2021/05/16 22:49:39;;;;;;;1.00;0.90;;;14.10;95.70;;;;;;10431934;28;20229;-76
2021/05/16 22:54:41;;;;;;;1.00;1.00;;;14.10;95.60;;;;;;10421254;28;20230;-76
2021/05/16 22:59:43;;;;;;;2.70;1.10;;;14.10;94.70;;;;;;10427219;28;20209;-76
2021/05/16 23:04:44;;;;;;;3.07;1.40;;;14.10;94.40;;;;;;10450971;28;20350;-76
2021/05/16 23:09:48;;;;;;;1.67;1.20;;;14.10;94.90;;;;;;10474923;28;20633;-76
2021/05/16 23:14:49;;;;;;;0.90;0.90;;;14.00;94.60;;;;;;10473994;28;20244;-76
2021/05/16 23:19:51;;;;;;;1.10;1.10;;;14.00;94.70;;;;;;10482533;28;20644;-76
2021/05/16 23:24:54;;;;;;;1.10;1.00;;;14.00;94.90;;;;;;10479133;28;20279;-76
2021/05/16 23:29:56;;;;;;;1.30;1.10;;;14.00;95.10;;;;;;10482808;28;20220;-76
2021/05/16 23:34:58;;;;;;;1.20;1.00;;;14.00;95.00;;;;;;10483391;28;20672;-76
2021/05/16 23:40:02;;;;;;;1.30;1.20;;;14.00;94.60;;;;;;10486389;28;20201;-76
2021/05/16 23:45:05;;;;;;;1.00;1.00;;;13.90;94.50;;;;;;10489508;28;20243;-76
2021/05/16 23:50:09;;;;;;;0.93;0.93;;;13.90;94.80;;;;;;10489085;28;20709;-76
2021/05/16 23:55:13;;;;;;;1.27;0.90;;;13.80;95.00;;;;;;10484322;28;20255;-76
